Time;durP1;ratioP1;P1;durP2;ratioP2;P2;SDS_P1;SDS_P2;PMS_P1;PMS_P2;Temp;Humidity;BMP_temperature;BMP_pressure;BME280_temperature;BME280_humidity;BME280_pressure;Samples;Min_cycle;Max_cycle;Signal;HPM_P1;HPM_P2
2023/01/21 00:01:30;;;;;;;25.87;11.13;;;-0.70;99.90;;;;;;5214935;28;20178;-44
2023/01/21 00:04:01;;;;;;;31.80;12.00;;;-0.70;99.90;;;;;;5222410;28;20219;-47
2023/01/21 00:06:31;;;;;;;28.77;11.67;;;-0.50;99.90;;;;;;5214487;28;20187;-45
2023/01/21 00:09:03;;;;;;;24.17;11.83;;;-0.60;99.90;;;;;;5227269;28;20179;-46
2023/01/21 00:11:33;;;;;;;29.60;12.40;;;-0.60;99.90;;;;;;5204206;28;20214;-45
2023/01/21 00:14:04;;;;;;;25.37;11.13;;;-0.70;99.90;;;;;;5224946;28;20453;-45
2023/01/21 00:16:34;;;;;;;20.80;12.43;;;-0.70;99.90;;;;;;5219184;28;20269;-45
2023/01/21 00:19:05;;;;;;;22.20;10.80;;;-0.70;99.90;;;;;;5228748;28;20186;-48
2023/01/21 00:21:36;;;;;;;18.73;10.20;;;-0.80;99.90;;;;;;5224893;28;20503;-44
2023/01/21 00:24:06;;;;;;;22.27;11.00;;;-0.70;99.90;;;;;;5224677;28;20218;-45
2023/01/21 00:26:37;;;;;;;25.33;10.50;;;-0.80;99.90;;;;;;5227681;28;20700;-45
2023/01/21 00:29:09;;;;;;;25.83;11.17;;;-0.80;99.90;;;;;;5222357;28;20189;-44
2023/01/21 00:31:40;;;;;;;23.73;10.87;;;-0.90;99.90;;;;;;5217904;28;20209;-47
2023/01/21 00:34:11;;;;;;;29.90;12.00;;;-0.90;99.90;;;;;;5223839;28;20976;-45
2023/01/21 00:36:42;;;;;;;24.10;11.13;;;-0.80;99.90;;;;;;5224198;28;20178;-47
2023/01/21 00:39:12;;;;;;;19.40;10.30;;;-0.80;99.90;;;;;;5219432;28;20996;-44
2023/01/21 00:41:43;;;;;;;18.53;10.87;;;-0.80;99.90;;;;;;5222833;28;20551;-47
2023/01/21 00:44:15;;;;;;;25.43;10.40;;;-0.80;99.90;;;;;;5223736;28;20199;-48
2023/01/21 00:46:45;;;;;;;15.40;8.50;;;-0.70;99.90;;;;;;5225811;28;20179;-45
2023/01/21 00:49:16;;;;;;;20.23;11.40;;;-0.90;99.90;;;;;;5232365;28;20831;-45
2023/01/21 00:51:47;;;;;;;19.53;9.87;;;-0.90;99.90;;;;;;5230421;28;20196;-45
2023/01/21 00:54:18;;;;;;;19.90;8.80;;;-0.80;99.90;;;;;;5215284;28;20214;-47
2023/01/21 00:56:49;;;;;;;15.30;8.90;;;-0.80;99.90;;;;;;5204706;28;20654;-47
2023/01/21 00:59:19;;;;;;;23.03;9.33;;;-0.70;99.90;;;;;;5217739;28;20182;-48
2023/01/21 01:01:50;;;;;;;17.90;10.07;;;-0.70;99.90;;;;;;5214347;28;20460;-49
2023/01/21 01:04:21;;;;;;;17.53;9.83;;;-0.70;99.90;;;;;;5221290;28;20569;-47
2023/01/21 01:06:52;;;;;;;14.27;8.70;;;-0.70;99.90;;;;;;5213664;28;20213;-47
2023/01/21 01:09:23;;;;;;;16.67;9.27;;;-0.50;99.90;;;;;;5222745;28;20984;-49
2023/01/21 01:11:53;;;;;;;18.83;9.30;;;-0.60;99.90;;;;;;5213117;28;20269;-48
2023/01/21 01:14:24;;;;;;;20.70;9.43;;;-0.60;99.90;;;;;;5223437;28;20249;-48
2023/01/21 01:16:55;;;;;;;16.00;9.73;;;-0.70;99.90;;;;;;5214955;28;20225;-47
2023/01/21 01:19:26;;;;;;;13.77;8.77;;;-0.60;99.90;;;;;;5216359;28;20179;-47
2023/01/21 01:21:56;;;;;;;12.67;6.93;;;-0.60;99.90;;;;;;5218892;28;20655;-49
2023/01/21 01:24:27;;;;;;;17.10;8.60;;;-0.60;99.90;;;;;;5221254;28;20203;-48
2023/01/21 01:26:58;;;;;;;10.73;7.60;;;-0.60;99.90;;;;;;5224136;28;20267;-48
2023/01/21 01:29:28;;;;;;;13.27;7.30;;;-0.60;99.90;;;;;;5224545;28;20187;-49
2023/01/21 01:31:59;;;;;;;15.33;6.90;;;-0.70;99.90;;;;;;5221849;28;20213;-48
2023/01/21 01:34:30;;;;;;;12.67;8.33;;;-0.60;99.90;;;;;;5222474;28;20295;-49
2023/01/21 01:37:00;;;;;;;16.43;8.03;;;-0.60;99.90;;;;;;5219280;28;20224;-48
2023/01/21 01:39:31;;;;;;;15.13;8.40;;;-0.60;99.90;;;;;;5218594;28;20218;-47
2023/01/21 01:42:02;;;;;;;16.57;8.70;;;-0.50;99.90;;;;;;5223802;28;20179;-48
2023/01/21 01:44:56;;;;;;;19.53;10.10;;;-0.60;99.90;;;;;;5223184;28;20272;-50
2023/01/21 01:47:41;;;;;;;25.03;10.60;;;-0.50;99.90;;;;;;5217017;28;20472;-49
2023/01/21 01:50:16;;;;;;;26.40;11.00;;;-0.50;99.90;;;;;;5220630;28;20440;-48
2023/01/21 01:52:47;;;;;;;25.10;10.63;;;-0.40;99.90;;;;;;5216715;28;20509;-47
2023/01/21 01:55:18;;;;;;;15.87;9.70;;;-0.50;99.90;;;;;;5224947;28;20560;-48
2023/01/21 01:57:52;;;;;;;29.50;11.07;;;-0.30;99.90;;;;;;5227149;28;20178;-47
2023/01/21 02:00:24;;;;;;;24.07;12.03;;;-0.40;99.90;;;;;;5213538;28;20225;-49
2023/01/21 02:05:46;;;;;;;27.03;12.53;;;-0.30;99.90;;;;;;5220786;28;20496;-48
2023/01/21 02:08:18;;;;;;;18.97;10.80;;;-0.30;99.90;;;;;;5211387;28;20429;-47
2023/01/21 02:10:49;;;;;;;21.00;11.13;;;-0.30;99.90;;;;;;5200547;28;20525;-48
2023/01/21 02:13:19;;;;;;;26.63;12.30;;;-0.30;99.90;;;;;;5223080;28;20516;-49
2023/01/21 02:15:59;;;;;;;23.80;10.90;;;-0.20;99.90;;;;;;5222434;28;20183;-49
2023/01/21 02:18:48;;;;;;;25.17;12.40;;;-0.10;99.90;;;;;;5214915;28;20278;-47
2023/01/21 02:21:22;;;;;;;34.33;11.53;;;-0.10;99.90;;;;;;5213696;28;20496;-50
2023/01/21 02:24:12;;;;;;;29.00;12.67;;;-0.20;99.90;;;;;;5221945;28;20452;-49
2023/01/21 02:27:03;;;;;;;27.40;13.37;;;-0.10;99.90;;;;;;5222060;28;20477;-46
2023/01/21 02:30:10;;;;;;;21.87;11.77;;;-0.10;99.90;;;;;;5223145;28;20447;-48
2023/01/21 02:33:03;;;;;;;41.00;14.83;;;0.00;99.90;;;;;;5215665;28;20498;-46
2023/01/21 02:35:41;;;;;;;32.90;13.87;;;-0.10;99.90;;;;;;5213099;28;20850;-48
2023/01/21 02:38:44;;;;;;;28.87;13.40;;;0.00;99.90;;;;;;5222198;28;20433;-48
2023/01/21 02:41:39;;;;;;;24.60;12.27;;;-0.10;99.90;;;;;;5224979;28;20600;-48
2023/01/21 02:44:37;;;;;;;23.63;13.50;;;0.00;99.90;;;;;;5227793;28;20863;-49
2023/01/21 02:47:19;;;;;;;27.80;14.57;;;0.00;99.90;;;;;;5222366;28;20486;-48
2023/01/21 02:50:14;;;;;;;34.10;14.27;;;-0.10;99.90;;;;;;5226490;28;20504;-46
2023/01/21 02:52:57;;;;;;;38.53;14.67;;;-0.10;99.90;;;;;;5226447;28;20464;-46
2023/01/21 02:55:37;;;;;;;24.80;13.80;;;-0.10;99.90;;;;;;5226852;28;20552;-48
2023/01/21 02:58:13;;;;;;;28.47;13.97;;;-0.10;99.90;;;;;;5223519;28;20417;-49
2023/01/21 03:01:22;;;;;;;24.50;12.83;;;0.00;99.90;;;;;;5231412;28;20442;-47
2023/01/21 03:03:58;;;;;;;27.63;14.23;;;0.00;99.90;;;;;;5225205;28;20492;-47
2023/01/21 03:06:40;;;;;;;24.07;12.40;;;0.10;99.90;;;;;;5224535;28;20433;-48
2023/01/21 03:09:20;;;;;;;23.90;12.03;;;0.10;99.90;;;;;;5225317;28;20503;-48
2023/01/21 03:12:07;;;;;;;26.67;13.53;;;0.10;99.90;;;;;;5223004;28;20468;-47
2023/01/21 03:18:16;;;;;;;28.00;10.97;;;0.10;99.90;;;;;;5224125;28;20520;-50
2023/01/21 03:21:22;;;;;;;28.60;12.37;;;0.10;99.90;;;;;;5218819;28;20530;-47
2023/01/21 03:23:56;;;;;;;22.20;11.03;;;0.10;99.90;;;;;;5178566;28;20449;-49
2023/01/21 03:26:37;;;;;;;22.73;12.30;;;0.20;99.90;;;;;;5223981;28;20434;-47
2023/01/21 03:29:17;;;;;;;17.17;10.87;;;0.20;99.90;;;;;;5225720;28;20942;-49
2023/01/21 03:31:52;;;;;;;18.17;11.37;;;0.20;99.90;;;;;;5216543;28;20512;-49
2023/01/21 03:34:26;;;;;;;20.93;10.70;;;0.20;99.90;;;;;;5222594;28;20452;-48
2023/01/21 03:37:06;;;;;;;17.93;10.50;;;0.20;99.90;;;;;;5226834;28;20524;-49
2023/01/21 03:39:42;;;;;;;22.73;12.17;;;0.20;99.90;;;;;;5223892;28;20437;-50
2023/01/21 03:42:14;;;;;;;21.03;9.63;;;0.20;99.90;;;;;;5224738;28;20496;-48
2023/01/21 03:44:45;;;;;;;18.97;11.20;;;0.20;99.90;;;;;;5202261;28;20999;-49
2023/01/21 03:47:30;;;;;;;24.13;10.47;;;0.20;99.90;;;;;;5224632;28;20468;-49
2023/01/21 03:50:09;;;;;;;18.30;10.20;;;0.20;99.90;;;;;;5224856;28;20539;-49
2023/01/21 03:52:41;;;;;;;19.20;10.93;;;0.30;99.90;;;;;;5220148;28;20476;-46
2023/01/21 03:55:14;;;;;;;19.87;10.70;;;0.20;99.90;;;;;;5225664;28;20938;-50
2023/01/21 03:57:45;;;;;;;18.87;9.60;;;0.10;99.90;;;;;;5226682;28;20427;-48
2023/01/21 04:00:16;;;;;;;17.90;10.23;;;0.20;99.90;;;;;;5212953;28;20425;-48
2023/01/21 04:02:47;;;;;;;12.93;8.30;;;0.20;99.90;;;;;;5191828;28;20179;-47
2023/01/21 04:05:18;;;;;;;16.33;9.70;;;0.20;99.90;;;;;;5224929;28;20561;-49
2023/01/21 04:07:48;;;;;;;16.60;7.97;;;0.20;99.90;;;;;;5224933;28;20717;-49
2023/01/21 04:10:19;;;;;;;16.67;9.93;;;0.10;99.90;;;;;;5224553;28;20246;-48
2023/01/21 04:12:50;;;;;;;15.67;9.40;;;0.10;99.90;;;;;;5216184;28;20207;-49
2023/01/21 04:15:20;;;;;;;16.37;8.40;;;0.10;99.90;;;;;;5219545;28;20208;-46
2023/01/21 04:17:51;;;;;;;11.53;7.90;;;0.20;99.90;;;;;;5216038;28;20182;-48
2023/01/21 04:20:21;;;;;;;9.93;7.00;;;0.10;99.90;;;;;;5200836;28;20210;-47
2023/01/21 04:22:52;;;;;;;11.97;8.87;;;0.10;99.90;;;;;;5219567;28;20513;-46
2023/01/21 04:25:23;;;;;;;11.47;6.50;;;0.00;99.90;;;;;;5226055;28;20706;-48
2023/01/21 04:27:54;;;;;;;17.00;8.33;;;0.00;99.90;;;;;;5221581;28;20191;-47
2023/01/21 04:30:24;;;;;;;14.33;8.50;;;0.10;99.90;;;;;;5211978;28;20677;-46
2023/01/21 04:32:55;;;;;;;13.63;7.90;;;0.00;99.90;;;;;;5212913;28;20198;-48
2023/01/21 04:35:26;;;;;;;9.33;5.57;;;-0.10;99.90;;;;;;5218087;28;20197;-49
2023/01/21 04:37:56;;;;;;;13.53;7.40;;;0.00;99.90;;;;;;5224361;28;20205;-49
2023/01/21 04:40:27;;;;;;;11.63;7.40;;;0.00;99.90;;;;;;5232851;28;20527;-47
2023/01/21 04:42:58;;;;;;;14.93;6.50;;;0.00;99.90;;;;;;5221249;28;20652;-47
2023/01/21 04:45:28;;;;;;;14.10;7.20;;;-0.10;99.90;;;;;;5235404;28;20204;-48
2023/01/21 04:47:59;;;;;;;12.10;7.70;;;-0.20;99.90;;;;;;5220666;28;20180;-48
2023/01/21 04:50:29;;;;;;;10.97;6.97;;;-0.10;99.90;;;;;;5221623;28;20178;-49
2023/01/21 04:53:00;;;;;;;15.50;7.20;;;-0.10;99.90;;;;;;5217222;28;20300;-48
2023/01/21 04:55:31;;;;;;;15.00;7.33;;;-0.20;99.90;;;;;;5224073;28;20262;-48
2023/01/21 04:58:01;;;;;;;12.10;7.40;;;-0.30;99.90;;;;;;5221616;28;20202;-47
2023/01/21 05:00:32;;;;;;;11.40;7.43;;;-0.30;99.90;;;;;;5222041;28;20191;-47
2023/01/21 05:03:03;;;;;;;10.17;6.37;;;-0.20;99.90;;;;;;5223219;28;20799;-48
2023/01/21 05:05:33;;;;;;;12.73;7.07;;;-0.30;99.90;;;;;;5222367;28;20211;-46
2023/01/21 05:08:04;;;;;;;17.57;7.83;;;-0.30;99.90;;;;;;5222944;28;20184;-47
2023/01/21 05:10:35;;;;;;;12.80;7.00;;;-0.30;99.90;;;;;;5224886;28;20187;-46
2023/01/21 05:13:05;;;;;;;11.20;6.50;;;-0.30;99.90;;;;;;5223319;28;20242;-48
2023/01/21 05:15:36;;;;;;;12.70;7.10;;;-0.40;99.90;;;;;;5213068;28;20656;-48
2023/01/21 05:18:07;;;;;;;13.37;7.40;;;-0.30;99.90;;;;;;5224605;28;20190;-48
2023/01/21 05:20:37;;;;;;;11.30;7.40;;;-0.30;99.90;;;;;;5215911;28;20171;-48
2023/01/21 05:23:08;;;;;;;13.77;6.50;;;-0.20;99.90;;;;;;5220119;28;20211;-48
2023/01/21 05:25:38;;;;;;;17.30;7.63;;;-0.20;99.90;;;;;;5222421;28;20222;-48
2023/01/21 05:28:09;;;;;;;11.67;6.90;;;-0.20;99.90;;;;;;5214264;28;20194;-47
2023/01/21 05:30:40;;;;;;;13.13;7.43;;;-0.10;99.90;;;;;;5215577;28;20210;-48
2023/01/21 05:33:10;;;;;;;10.80;7.00;;;-0.10;99.90;;;;;;5222338;28;20586;-47
2023/01/21 05:35:41;;;;;;;23.30;7.43;;;-0.10;99.90;;;;;;5219868;28;20179;-47
2023/01/21 05:38:12;;;;;;;14.70;7.40;;;0.00;99.90;;;;;;5217122;28;20175;-47
2023/01/21 05:40:42;;;;;;;15.83;7.90;;;0.00;99.90;;;;;;5221430;28;20171;-48
2023/01/21 05:43:13;;;;;;;12.37;7.97;;;0.00;99.90;;;;;;5222889;28;20183;-48
2023/01/21 05:45:44;;;;;;;8.90;6.77;;;0.00;99.90;;;;;;5220096;28;20554;-48
2023/01/21 05:48:14;;;;;;;9.00;6.67;;;0.00;99.90;;;;;;5217974;28;20271;-47
2023/01/21 05:50:46;;;;;;;15.33;7.40;;;0.00;99.90;;;;;;5215562;28;20542;-48
2023/01/21 05:53:17;;;;;;;11.87;7.10;;;0.10;99.90;;;;;;5217629;28;20286;-48
2023/01/21 05:55:51;;;;;;;13.43;7.20;;;0.10;99.90;;;;;;5203315;28;20437;-48
2023/01/21 05:58:23;;;;;;;11.67;7.57;;;0.20;99.90;;;;;;5221936;28;20482;-47
2023/01/21 06:00:56;;;;;;;16.00;8.07;;;0.30;99.90;;;;;;5220669;28;20989;-47
2023/01/21 06:03:27;;;;;;;8.73;7.43;;;0.30;99.90;;;;;;5216886;28;20439;-48
2023/01/21 06:05:57;;;;;;;14.20;7.73;;;0.30;99.90;;;;;;5222126;28;20429;-47
2023/01/21 06:08:28;;;;;;;9.47;7.17;;;0.30;99.90;;;;;;5212322;28;20244;-48
2023/01/21 06:10:59;;;;;;;9.10;7.57;;;0.30;99.90;;;;;;5221510;28;20210;-47
2023/01/21 06:13:29;;;;;;;16.73;8.00;;;0.30;99.90;;;;;;5225486;28;20179;-48
2023/01/21 06:16:00;;;;;;;11.77;7.20;;;0.30;99.90;;;;;;5225800;28;20686;-46
2023/01/21 06:18:31;;;;;;;13.60;7.87;;;0.40;99.90;;;;;;5221247;28;20713;-48
2023/01/21 06:21:02;;;;;;;14.10;7.87;;;0.30;99.90;;;;;;5226743;28;20280;-49
2023/01/21 06:23:32;;;;;;;17.33;9.13;;;0.30;99.90;;;;;;5221665;28;20586;-47
2023/01/21 06:26:03;;;;;;;13.70;9.70;;;0.30;99.90;;;;;;5227027;28;20181;-48
2023/01/21 06:28:34;;;;;;;22.07;10.80;;;0.30;99.90;;;;;;5217810;28;20188;-46
2023/01/21 06:31:04;;;;;;;18.67;10.30;;;0.20;99.90;;;;;;5217805;28;20188;-47
2023/01/21 06:33:35;;;;;;;16.13;10.30;;;0.30;99.90;;;;;;5226556;28;20198;-49
2023/01/21 06:36:06;;;;;;;24.97;11.90;;;0.30;99.90;;;;;;5219096;28;20211;-49
2023/01/21 06:38:37;;;;;;;19.17;12.10;;;0.30;99.90;;;;;;5223093;28;20507;-46
2023/01/21 06:41:08;;;;;;;19.70;10.87;;;0.30;99.90;;;;;;5225079;28;20930;-46
2023/01/21 06:43:40;;;;;;;28.47;12.97;;;0.30;99.90;;;;;;5222947;28;20841;-46
2023/01/21 06:46:11;;;;;;;41.07;13.20;;;0.40;99.90;;;;;;5218340;28;20437;-46
2023/01/21 06:48:42;;;;;;;18.67;12.07;;;0.30;99.90;;;;;;5209299;28;20577;-46
2023/01/21 06:51:12;;;;;;;27.33;13.80;;;0.30;99.90;;;;;;5220600;28;20588;-49
2023/01/21 06:53:43;;;;;;;22.53;13.93;;;0.40;99.90;;;;;;5224513;28;20225;-46
2023/01/21 06:56:13;;;;;;;24.00;13.17;;;0.30;99.90;;;;;;5226532;28;20211;-48
2023/01/21 06:58:44;;;;;;;31.73;14.10;;;0.40;99.90;;;;;;5220835;28;20187;-48
2023/01/21 07:01:15;;;;;;;35.03;13.80;;;0.30;99.90;;;;;;5225064;28;20246;-47
2023/01/21 07:03:45;;;;;;;23.93;13.57;;;0.30;99.90;;;;;;5216602;28;20285;-47
2023/01/21 07:06:16;;;;;;;26.97;14.70;;;0.30;99.90;;;;;;5218884;28;20570;-46
2023/01/21 07:08:47;;;;;;;24.90;14.00;;;0.30;99.90;;;;;;5216342;28;20183;-48
2023/01/21 07:11:18;;;;;;;22.77;14.30;;;0.30;99.90;;;;;;5223096;28;20221;-49
2023/01/21 07:13:49;;;;;;;31.63;14.43;;;0.30;99.90;;;;;;5225256;28;20457;-45
2023/01/21 07:16:19;;;;;;;29.97;14.43;;;0.20;99.90;;;;;;5218164;28;20190;-46
2023/01/21 07:18:50;;;;;;;29.13;14.33;;;0.20;99.90;;;;;;5220902;28;20194;-46
2023/01/21 07:21:23;;;;;;;31.30;16.50;;;0.30;99.90;;;;;;5220039;28;20274;-47
2023/01/21 07:23:54;;;;;;;33.13;15.83;;;0.30;99.90;;;;;;5221099;28;20242;-48
2023/01/21 07:26:25;;;;;;;31.50;16.70;;;0.30;99.90;;;;;;5216843;28;20457;-48
2023/01/21 07:28:56;;;;;;;31.57;14.93;;;0.40;99.90;;;;;;5215260;28;20438;-49
2023/01/21 07:31:26;;;;;;;27.80;15.07;;;0.40;99.90;;;;;;5222864;28;20283;-47
2023/01/21 07:33:57;;;;;;;29.90;16.30;;;0.40;99.90;;;;;;5211213;28;20214;-48
2023/01/21 07:36:28;;;;;;;26.43;14.87;;;0.30;99.90;;;;;;5223992;28;20175;-47
2023/01/21 07:38:59;;;;;;;26.10;15.10;;;0.40;99.90;;;;;;5221613;28;20179;-50
2023/01/21 07:41:29;;;;;;;26.30;14.70;;;0.40;99.90;;;;;;5219737;28;20456;-49
2023/01/21 07:44:00;;;;;;;27.90;16.37;;;0.50;99.90;;;;;;5225433;28;20229;-52
2023/01/21 07:46:32;;;;;;;30.07;14.50;;;0.40;99.90;;;;;;5222049;28;20193;-48
2023/01/21 07:49:02;;;;;;;25.83;14.10;;;0.50;99.90;;;;;;5220126;28;20196;-49
2023/01/21 07:51:33;;;;;;;28.90;14.90;;;0.50;99.90;;;;;;5222839;28;20469;-48
2023/01/21 07:54:03;;;;;;;27.13;15.30;;;0.50;99.90;;;;;;5212222;28;20803;-50
2023/01/21 07:56:34;;;;;;;21.70;12.33;;;0.50;99.90;;;;;;5222690;28;20662;-49
2023/01/21 07:59:05;;;;;;;21.03;14.13;;;0.60;99.90;;;;;;5219807;28;20188;-50
2023/01/21 08:01:35;;;;;;;20.77;12.80;;;0.50;99.90;;;;;;5221172;28;20218;-49
2023/01/21 08:04:08;;;;;;;23.73;13.73;;;0.50;99.90;;;;;;5218085;28;20718;-47
2023/01/21 08:06:40;;;;;;;26.60;13.23;;;0.50;99.90;;;;;;5223044;28;20180;-49
2023/01/21 08:09:10;;;;;;;21.73;12.37;;;0.50;99.90;;;;;;5210387;28;20442;-49
2023/01/21 08:11:43;;;;;;;21.50;13.60;;;0.60;99.90;;;;;;5222722;28;20457;-49
2023/01/21 08:14:13;;;;;;;20.60;12.50;;;0.50;99.90;;;;;;5216070;28;20579;-46
2023/01/21 08:16:44;;;;;;;19.30;11.77;;;0.50;99.90;;;;;;5207846;28;20444;-49
2023/01/21 08:19:15;;;;;;;22.33;11.70;;;0.60;99.90;;;;;;5216028;28;20616;-49
2023/01/21 08:21:45;;;;;;;22.70;12.17;;;0.60;99.90;;;;;;5215715;28;20270;-48
2023/01/21 08:24:16;;;;;;;24.87;13.43;;;0.60;99.90;;;;;;5207463;28;20567;-49
2023/01/21 08:26:47;;;;;;;19.63;11.63;;;0.70;99.90;;;;;;5222927;28;20201;-48
2023/01/21 08:29:18;;;;;;;19.77;13.63;;;0.80;99.90;;;;;;5220902;28;20440;-46
2023/01/21 08:31:49;;;;;;;23.70;12.40;;;0.80;99.90;;;;;;5220070;28;21002;-49
2023/01/21 08:34:20;;;;;;;21.53;11.73;;;0.80;99.90;;;;;;5219206;28;20199;-49
2023/01/21 08:36:50;;;;;;;19.33;11.40;;;0.90;99.90;;;;;;5220391;28;20503;-48
2023/01/21 08:39:21;;;;;;;19.00;10.80;;;0.90;99.90;;;;;;5220207;28;20764;-49
2023/01/21 08:41:52;;;;;;;23.53;12.90;;;0.90;99.90;;;;;;5217039;28;20231;-49
2023/01/21 08:44:22;;;;;;;19.33;11.57;;;1.00;99.90;;;;;;5222616;28;20264;-47
2023/01/21 08:46:53;;;;;;;15.00;10.90;;;0.90;99.90;;;;;;5217427;28;20191;-47
2023/01/21 08:49:24;;;;;;;21.17;10.87;;;1.10;99.90;;;;;;5219751;28;20184;-47
2023/01/21 08:51:54;;;;;;;19.47;11.57;;;1.00;99.90;;;;;;5206745;28;20294;-48
2023/01/21 08:54:25;;;;;;;22.27;12.03;;;1.00;99.90;;;;;;5215177;28;20645;-47
2023/01/21 08:56:56;;;;;;;25.93;13.13;;;1.00;99.90;;;;;;5196062;28;20724;-49
2023/01/21 08:59:28;;;;;;;21.37;12.33;;;1.00;99.90;;;;;;5201891;28;20182;-50
2023/01/21 09:01:59;;;;;;;23.03;11.30;;;1.10;99.90;;;;;;5218839;28;20188;-48
2023/01/21 09:04:30;;;;;;;18.00;11.00;;;1.00;99.90;;;;;;5209522;28;21010;-50
2023/01/21 09:07:01;;;;;;;19.37;11.60;;;1.10;99.90;;;;;;5218635;28;20448;-49
2023/01/21 09:09:31;;;;;;;24.23;12.90;;;1.10;99.90;;;;;;5218020;28;20976;-50
2023/01/21 09:12:05;;;;;;;19.03;11.30;;;1.20;99.90;;;;;;5221927;28;20642;-49
2023/01/21 09:14:35;;;;;;;21.23;12.50;;;1.20;99.90;;;;;;5212453;28;20221;-50
2023/01/21 09:17:06;;;;;;;20.57;11.70;;;1.30;99.90;;;;;;5197968;28;20437;-49
2023/01/21 09:19:37;;;;;;;21.70;11.77;;;1.40;99.90;;;;;;5212309;28;20579;-49
2023/01/21 09:22:08;;;;;;;20.00;11.70;;;1.40;99.90;;;;;;5210331;28;20519;-51
2023/01/21 09:24:41;;;;;;;20.07;11.47;;;1.50;99.90;;;;;;5204963;28;20206;-48
2023/01/21 09:27:11;;;;;;;21.90;11.20;;;1.60;99.90;;;;;;5194944;28;20535;-50
2023/01/21 09:29:42;;;;;;;16.17;10.50;;;1.60;99.90;;;;;;5208802;28;20583;-48
2023/01/21 09:32:13;;;;;;;19.50;10.80;;;1.70;99.90;;;;;;5218244;28;20218;-48
2023/01/21 09:34:43;;;;;;;18.70;12.53;;;1.80;99.90;;;;;;5221811;28;20240;-50
2023/01/21 09:37:14;;;;;;;21.03;11.73;;;1.80;99.90;;;;;;5218662;28;20186;-50
2023/01/21 09:39:44;;;;;;;24.33;12.53;;;1.80;99.90;;;;;;5207694;28;20186;-47
2023/01/21 09:42:24;;;;;;;26.20;12.20;;;2.00;99.90;;;;;;5212379;28;20190;-47
2023/01/21 09:44:58;;;;;;;18.77;12.67;;;1.90;99.90;;;;;;5217612;28;20217;-50
2023/01/21 09:47:34;;;;;;;23.17;11.53;;;2.00;99.90;;;;;;5187967;28;20501;-52
2023/01/21 09:50:13;;;;;;;21.97;11.10;;;2.10;99.90;;;;;;5213366;28;20449;-50
2023/01/21 09:52:47;;;;;;;18.47;12.30;;;2.20;99.90;;;;;;5210305;28;20527;-49
2023/01/21 09:55:19;;;;;;;23.37;12.27;;;2.20;99.90;;;;;;5219900;28;20460;-49
2023/01/21 09:58:07;;;;;;;24.27;12.40;;;2.20;99.90;;;;;;5216979;28;20460;-47
2023/01/21 10:01:02;;;;;;;20.27;11.87;;;2.20;99.90;;;;;;5212377;28;20441;-47
2023/01/21 10:03:51;;;;;;;27.67;13.03;;;2.20;99.90;;;;;;5212722;28;20465;-47
2023/01/21 10:06:35;;;;;;;24.83;13.23;;;2.20;99.90;;;;;;5215335;28;20536;-49
2023/01/21 10:09:18;;;;;;;24.03;11.70;;;2.20;99.90;;;;;;5212298;28;20453;-50
2023/01/21 10:12:20;;;;;;;28.70;12.00;;;2.20;99.90;;;;;;5211241;28;20480;-49
2023/01/21 10:14:57;;;;;;;28.60;12.90;;;2.30;99.90;;;;;;5214845;28;20809;-48
2023/01/21 10:17:40;;;;;;;18.57;11.93;;;2.30;99.90;;;;;;5210063;28;20521;-49
2023/01/21 10:20:23;;;;;;;23.73;12.53;;;2.30;99.90;;;;;;5196754;28;20438;-50
2023/01/21 10:23:01;;;;;;;21.60;11.97;;;2.30;99.90;;;;;;5203285;28;20449;-49
2023/01/21 10:25:34;;;;;;;28.43;11.53;;;2.20;99.90;;;;;;5217924;28;20512;-51
2023/01/21 10:28:15;;;;;;;18.33;11.83;;;2.30;99.90;;;;;;5214638;28;20449;-50
2023/01/21 10:30:50;;;;;;;17.50;11.20;;;2.30;99.90;;;;;;5205498;28;20441;-50
2023/01/21 10:33:24;;;;;;;16.97;10.03;;;2.30;99.90;;;;;;5202267;28;20460;-50
2023/01/21 10:36:04;;;;;;;19.37;11.07;;;2.30;99.90;;;;;;5200186;28;20942;-48
2023/01/21 10:38:58;;;;;;;27.83;11.17;;;2.40;99.90;;;;;;5207440;28;20923;-48
2023/01/21 10:41:56;;;;;;;21.33;10.10;;;2.50;99.90;;;;;;5199809;28;20806;-46
2023/01/21 10:44:52;;;;;;;18.03;10.17;;;2.50;99.90;;;;;;5219899;28;20548;-50
2023/01/21 10:47:44;;;;;;;18.47;11.67;;;2.50;99.90;;;;;;5222061;28;20441;-47
2023/01/21 10:51:04;;;;;;;19.80;10.63;;;2.60;99.90;;;;;;5217345;28;20450;-51
2023/01/21 10:53:40;;;;;;;19.00;11.30;;;2.70;99.90;;;;;;5199928;28;20489;-49
2023/01/21 10:56:28;;;;;;;14.77;10.50;;;2.70;99.90;;;;;;5211885;28;20455;-50
2023/01/21 10:59:23;;;;;;;22.20;12.20;;;2.60;99.90;;;;;;5215130;28;20575;-46
2023/01/21 11:02:08;;;;;;;19.30;9.97;;;2.70;99.90;;;;;;5214000;28;20928;-52
2023/01/21 11:04:40;;;;;;;16.60;9.87;;;2.70;99.90;;;;;;5221948;28;20940;-49
2023/01/21 11:07:16;;;;;;;18.40;11.23;;;2.80;99.90;;;;;;5218513;28;20434;-49
2023/01/21 11:09:47;;;;;;;20.13;10.70;;;2.80;99.90;;;;;;5212211;28;20444;-51
2023/01/21 11:12:20;;;;;;;18.13;10.63;;;2.70;99.90;;;;;;5218022;28;20453;-51
2023/01/21 11:14:56;;;;;;;23.30;12.17;;;2.70;99.90;;;;;;5203479;28;20441;-51
2023/01/21 11:17:30;;;;;;;22.43;12.53;;;2.80;99.90;;;;;;5208406;28;20437;-49
2023/01/21 11:20:05;;;;;;;16.50;9.97;;;2.80;99.90;;;;;;5214996;28;20812;-51
2023/01/21 11:22:42;;;;;;;16.00;10.10;;;2.90;99.90;;;;;;5201603;28;20537;-47
2023/01/21 11:25:39;;;;;;;16.30;10.47;;;3.00;99.90;;;;;;5224206;28;20586;-51
2023/01/21 11:28:26;;;;;;;19.30;10.00;;;3.00;99.90;;;;;;5218395;28;20451;-52
2023/01/21 11:31:14;;;;;;;16.93;9.57;;;3.20;99.90;;;;;;5222336;28;20866;-50
2023/01/21 11:33:45;;;;;;;10.57;8.77;;;3.20;99.90;;;;;;5220246;28;20445;-50
2023/01/21 11:36:18;;;;;;;13.87;9.37;;;3.10;99.90;;;;;;5225409;28;20432;-50
2023/01/21 11:39:01;;;;;;;16.17;9.70;;;3.20;99.90;;;;;;5218844;28;20188;-52
2023/01/21 11:41:32;;;;;;;12.93;8.50;;;3.20;99.90;;;;;;5226559;28;20990;-51
2023/01/21 11:44:19;;;;;;;15.77;10.10;;;3.30;99.90;;;;;;5224258;28;20578;-50
2023/01/21 11:46:50;;;;;;;16.80;10.77;;;3.40;99.90;;;;;;5213986;28;20465;-49
2023/01/21 11:49:47;;;;;;;14.10;8.43;;;3.30;99.90;;;;;;5224437;28;21026;-51
2023/01/21 11:52:19;;;;;;;14.23;9.60;;;3.40;99.90;;;;;;5225201;28;20457;-50
2023/01/21 11:54:50;;;;;;;21.53;10.27;;;3.50;99.90;;;;;;5224146;28;20465;-48
2023/01/21 11:57:25;;;;;;;12.20;8.83;;;3.50;99.90;;;;;;5220441;28;20445;-50
2023/01/21 12:00:06;;;;;;;21.87;9.00;;;3.40;99.90;;;;;;5223420;28;20647;-50
2023/01/21 12:02:45;;;;;;;10.17;8.50;;;3.40;99.90;;;;;;5223625;28;20426;-51
2023/01/21 12:05:30;;;;;;;17.20;9.20;;;3.40;99.90;;;;;;5201687;28;20819;-49
2023/01/21 12:08:04;;;;;;;12.97;8.90;;;3.50;99.90;;;;;;5225488;28;20429;-50
2023/01/21 12:10:44;;;;;;;14.83;8.50;;;3.50;99.90;;;;;;5216928;28;20433;-48
2023/01/21 12:13:21;;;;;;;14.03;8.73;;;3.50;99.90;;;;;;5222444;28;20458;-50
2023/01/21 12:16:17;;;;;;;10.47;8.20;;;3.60;99.90;;;;;;5216301;28;20433;-49
2023/01/21 12:19:09;;;;;;;12.40;7.70;;;3.50;99.90;;;;;;5224686;28;20513;-49
2023/01/21 12:21:56;;;;;;;10.80;7.40;;;3.70;99.90;;;;;;5223746;28;20516;-49
2023/01/21 12:24:33;;;;;;;7.57;5.90;;;3.80;99.90;;;;;;5218583;28;20551;-50
2023/01/21 12:28:01;;;;;;;14.07;6.90;;;4.00;99.90;;;;;;5219487;28;20440;-50
2023/01/21 12:30:36;;;;;;;13.00;6.80;;;3.90;99.90;;;;;;5159660;28;20535;-50
2023/01/21 12:33:22;;;;;;;12.43;6.50;;;3.90;99.90;;;;;;5160420;28;20467;-49
2023/01/21 12:36:01;;;;;;;6.23;5.50;;;3.90;99.90;;;;;;5198343;28;20466;-47
2023/01/21 12:38:38;;;;;;;9.33;6.30;;;3.80;99.90;;;;;;5213211;28;20444;-48
2023/01/21 12:41:21;;;;;;;8.50;5.80;;;3.70;99.90;;;;;;5218951;28;20433;-50
2023/01/21 12:43:59;;;;;;;7.03;5.33;;;3.70;99.90;;;;;;5211091;28;20465;-51
2023/01/21 12:46:43;;;;;;;5.83;5.23;;;3.90;99.90;;;;;;5213660;28;20433;-49
2023/01/21 12:49:35;;;;;;;10.23;6.83;;;3.70;99.90;;;;;;5223542;28;20429;-49
2023/01/21 12:52:30;;;;;;;5.63;5.07;;;3.80;99.90;;;;;;5216166;28;20461;-50
2023/01/21 12:55:06;;;;;;;10.50;5.40;;;3.80;99.90;;;;;;5239844;22;20847;-52
2023/01/21 12:57:45;;;;;;;13.20;5.17;;;3.90;99.90;;;;;;5221156;28;20532;-53
2023/01/21 13:00:32;;;;;;;5.40;4.70;;;3.80;99.90;;;;;;5243763;28;20416;-56
2023/01/21 13:03:15;;;;;;;9.17;4.43;;;3.90;99.90;;;;;;5242538;28;20448;-51
2023/01/21 13:06:06;;;;;;;5.77;4.30;;;3.80;99.90;;;;;;5208549;28;20467;-49
2023/01/21 13:08:57;;;;;;;4.60;4.20;;;3.80;99.90;;;;;;5223878;28;20456;-49
2023/01/21 13:11:30;;;;;;;6.03;5.00;;;3.80;99.90;;;;;;5219841;28;20433;-52
2023/01/21 13:14:22;;;;;;;7.63;5.20;;;3.90;99.90;;;;;;5204805;28;20574;-50
2023/01/21 13:16:58;;;;;;;8.33;5.07;;;3.80;99.90;;;;;;5218677;28;20584;-51
2023/01/21 13:19:29;;;;;;;5.77;4.80;;;3.90;99.90;;;;;;5223012;28;20449;-50
2023/01/21 13:22:14;;;;;;;4.83;4.13;;;3.80;99.90;;;;;;5219737;28;20492;-50
2023/01/21 13:25:19;;;;;;;7.70;3.80;;;3.90;99.90;;;;;;5219368;28;20211;-51
2023/01/21 13:28:14;;;;;;;5.63;4.07;;;3.90;99.90;;;;;;5223646;28;20774;-55